Main page
METAR-TAF:

METAR-TAF

Airports :

Curaçao International Airport

Curaçao, Netherlands Antilles

latitude: 12-12N, longitude: 068-58W, elevation: 9 m

Current weather observation

The report was made 42 minutes ago, at 21:00 UTC
Wind 14 kt from the East
Temperature 28°C
Humidity 66%
Pressure 1012 hPa
Visibility 10 km or more
Few clouds at a height of 2200 ft

METAR: TNCC 252100Z 10014KT 9999 FEW022 28/21 Q1012 NOSIG

Time: 17:42 (21:42 UTC)

Forecast

The report was made 4 hours and 27 minutes ago, at 17:15 UTC
Forecast valid from 25 at 18 UTC to 26 at 18 UTC
Wind 16 kt from the East with gusts up to 27 kt
Visibility 10 km or more
Scattered clouds at a height of 2200 ft
Probability 30% :
Temporary
from 25 at 18 UTC to 26 at 12 UTC
Visibility: 5000 m
Scattered clouds at a height of 1400 ft
Broken clouds at a height of 2000 ft
rain showers

TAF: TNCC 251715Z 2518/2618 09016G27KT 9999 SCT022 PROB30 TEMPO 2518/2612 5000 SHRA SCT014 BKN020

Weather observations and forecasts of more than 4000 airports (METAR and TAF reports).

The available stations are represented by yellow and red dots on the map.

Hover mouse over dot to see the name of the station.

Then click to see weather observations and forecasts.

To change the map : click on the green buttons with a black cross to zoom in, on the green button with a dash to zoom out, or on the green arrows for adjacent maps.


METAR-TAF: